sensor_id;sensor_type;location;lat;lon;timestamp;P1;durP1;ratioP1;P2;durP2;ratioP2
60292;SDS011;52402;52.670;6.750;2024-02-23T00:01:02;28.20;;;26.80;;
60292;SDS011;52402;52.670;6.750;2024-02-23T00:03:28;27.48;;;26.10;;
60292;SDS011;52402;52.670;6.750;2024-02-23T00:05:54;26.15;;;24.85;;
60292;SDS011;52402;52.670;6.750;2024-02-23T00:08:20;27.33;;;25.95;;
60292;SDS011;52402;52.670;6.750;2024-02-23T00:10:46;27.85;;;26.45;;
60292;SDS011;52402;52.670;6.750;2024-02-23T00:15:42;27.33;;;26.02;;
60292;SDS011;52402;52.670;6.750;2024-02-23T00:18:09;27.95;;;26.55;;
60292;SDS011;52402;52.670;6.750;2024-02-23T00:20:34;29.35;;;27.95;;
60292;SDS011;52402;52.670;6.750;2024-02-23T00:23:02;27.55;;;26.25;;
60292;SDS011;52402;52.670;6.750;2024-02-23T00:25:28;26.77;;;25.48;;
60292;SDS011;52402;52.670;6.750;2024-02-23T00:27:53;26.92;;;25.63;;
60292;SDS011;52402;52.670;6.750;2024-02-23T00:30:19;26.30;;;25.00;;
60292;SDS011;52402;52.670;6.750;2024-02-23T00:32:45;26.40;;;25.10;;
60292;SDS011;52402;52.670;6.750;2024-02-23T00:35:12;27.90;;;26.52;;
60292;SDS011;52402;52.670;6.750;2024-02-23T00:37:38;26.85;;;25.55;;
60292;SDS011;52402;52.670;6.750;2024-02-23T00:40:06;26.70;;;25.40;;
60292;SDS011;52402;52.670;6.750;2024-02-23T00:42:35;27.77;;;26.38;;
60292;SDS011;52402;52.670;6.750;2024-02-23T00:45:00;26.83;;;25.52;;
60292;SDS011;52402;52.670;6.750;2024-02-23T00:47:35;27.73;;;26.35;;
60292;SDS011;52402;52.670;6.750;2024-02-23T00:50:01;28.90;;;27.50;;
60292;SDS011;52402;52.670;6.750;2024-02-23T00:52:27;26.73;;;25.42;;
60292;SDS011;52402;52.670;6.750;2024-02-23T00:54:54;27.20;;;25.90;;
60292;SDS011;52402;52.670;6.750;2024-02-23T00:57:21;28.58;;;27.17;;
60292;SDS011;52402;52.670;6.750;2024-02-23T00:59:52;29.80;;;28.40;;
60292;SDS011;52402;52.670;6.750;2024-02-23T01:05:10;28.75;;;27.35;;
60292;SDS011;52402;52.670;6.750;2024-02-23T01:07:36;28.35;;;26.95;;
60292;SDS011;52402;52.670;6.750;2024-02-23T01:10:02;29.23;;;27.83;;
60292;SDS011;52402;52.670;6.750;2024-02-23T01:12:28;28.05;;;26.70;;
60292;SDS011;52402;52.670;6.750;2024-02-23T01:14:54;29.58;;;28.17;;
60292;SDS011;52402;52.670;6.750;2024-02-23T01:17:20;27.13;;;25.83;;
60292;SDS011;52402;52.670;6.750;2024-02-23T01:19:46;28.75;;;27.35;;
60292;SDS011;52402;52.670;6.750;2024-02-23T01:24:41;27.42;;;26.13;;
60292;SDS011;52402;52.670;6.750;2024-02-23T01:27:07;26.67;;;25.38;;
60292;SDS011;52402;52.670;6.750;2024-02-23T01:29:34;26.27;;;25.00;;
60292;SDS011;52402;52.670;6.750;2024-02-23T01:32:00;27.48;;;26.17;;
60292;SDS011;52402;52.670;6.750;2024-02-23T01:34:26;26.67;;;25.38;;
60292;SDS011;52402;52.670;6.750;2024-02-23T01:36:52;26.25;;;24.95;;
60292;SDS011;52402;52.670;6.750;2024-02-23T01:39:17;27.50;;;26.20;;
60292;SDS011;52402;52.670;6.750;2024-02-23T01:41:43;27.20;;;25.90;;
60292;SDS011;52402;52.670;6.750;2024-02-23T01:44:09;27.58;;;26.27;;
60292;SDS011;52402;52.670;6.750;2024-02-23T01:46:38;28.02;;;26.73;;
60292;SDS011;52402;52.670;6.750;2024-02-23T01:49:03;28.23;;;26.83;;
60292;SDS011;52402;52.670;6.750;2024-02-23T01:51:32;26.88;;;25.58;;
60292;SDS011;52402;52.670;6.750;2024-02-23T01:54:00;27.52;;;26.23;;
60292;SDS011;52402;52.670;6.750;2024-02-23T01:56:26;28.88;;;27.48;;
60292;SDS011;52402;52.670;6.750;2024-02-23T01:58:52;28.95;;;27.55;;
60292;SDS011;52402;52.670;6.750;2024-02-23T02:01:23;28.98;;;27.58;;
60292;SDS011;52402;52.670;6.750;2024-02-23T02:03:49;29.13;;;27.73;;
60292;SDS011;52402;52.670;6.750;2024-02-23T02:06:15;27.85;;;26.52;;
60292;SDS011;52402;52.670;6.750;2024-02-23T02:08:42;26.42;;;25.15;;
60292;SDS011;52402;52.670;6.750;2024-02-23T02:11:07;29.35;;;27.95;;
60292;SDS011;52402;52.670;6.750;2024-02-23T02:13:33;26.85;;;25.55;;
60292;SDS011;52402;52.670;6.750;2024-02-23T02:15:59;27.90;;;26.60;;
60292;SDS011;52402;52.670;6.750;2024-02-23T02:18:26;29.45;;;28.05;;
60292;SDS011;52402;52.670;6.750;2024-02-23T02:20:52;27.38;;;26.08;;
60292;SDS011;52402;52.670;6.750;2024-02-23T02:23:20;28.95;;;27.55;;
60292;SDS011;52402;52.670;6.750;2024-02-23T02:25:59;29.80;;;28.40;;
60292;SDS011;52402;52.670;6.750;2024-02-23T02:28:25;29.10;;;27.70;;
60292;SDS011;52402;52.670;6.750;2024-02-23T02:30:51;30.48;;;28.98;;
60292;SDS011;52402;52.670;6.750;2024-02-23T02:33:20;30.17;;;28.70;;
60292;SDS011;52402;52.670;6.750;2024-02-23T02:35:46;30.60;;;29.10;;
60292;SDS011;52402;52.670;6.750;2024-02-23T02:38:12;30.73;;;29.23;;
60292;SDS011;52402;52.670;6.750;2024-02-23T02:40:53;29.77;;;28.38;;
60292;SDS011;52402;52.670;6.750;2024-02-23T02:43:20;29.40;;;28.00;;
60292;SDS011;52402;52.670;6.750;2024-02-23T02:45:46;30.88;;;29.38;;
60292;SDS011;52402;52.670;6.750;2024-02-23T02:48:11;29.67;;;28.23;;
60292;SDS011;52402;52.670;6.750;2024-02-23T02:50:37;28.67;;;27.27;;
60292;SDS011;52402;52.670;6.750;2024-02-23T02:53:02;28.38;;;26.98;;
60292;SDS011;52402;52.670;6.750;2024-02-23T02:55:28;28.30;;;26.90;;
60292;SDS011;52402;52.670;6.750;2024-02-23T02:57:54;27.90;;;26.55;;
60292;SDS011;52402;52.670;6.750;2024-02-23T03:00:19;29.55;;;28.15;;
60292;SDS011;52402;52.670;6.750;2024-02-23T03:02:45;29.30;;;27.90;;
60292;SDS011;52402;52.670;6.750;2024-02-23T03:05:10;29.35;;;27.95;;
60292;SDS011;52402;52.670;6.750;2024-02-23T03:07:36;29.40;;;28.00;;
60292;SDS011;52402;52.670;6.750;2024-02-23T03:10:02;29.70;;;28.30;;
60292;SDS011;52402;52.670;6.750;2024-02-23T03:12:27;30.45;;;29.02;;
60292;SDS011;52402;52.670;6.750;2024-02-23T03:14:53;30.88;;;29.38;;
60292;SDS011;52402;52.670;6.750;2024-02-23T03:17:22;29.45;;;28.05;;
60292;SDS011;52402;52.670;6.750;2024-02-23T03:19:48;29.77;;;28.38;;
60292;SDS011;52402;52.670;6.750;2024-02-23T03:22:15;30.27;;;28.77;;
60292;SDS011;52402;52.670;6.750;2024-02-23T03:24:41;29.63;;;28.23;;
60292;SDS011;52402;52.670;6.750;2024-02-23T03:27:06;29.33;;;27.92;;
60292;SDS011;52402;52.670;6.750;2024-02-23T03:29:32;29.02;;;27.63;;
60292;SDS011;52402;52.670;6.750;2024-02-23T03:31:58;30.27;;;28.77;;
60292;SDS011;52402;52.670;6.750;2024-02-23T03:34:24;29.13;;;27.73;;
60292;SDS011;52402;52.670;6.750;2024-02-23T03:36:51;29.40;;;28.00;;
60292;SDS011;52402;52.670;6.750;2024-02-23T03:39:17;29.95;;;28.45;;
60292;SDS011;52402;52.670;6.750;2024-02-23T03:41:42;28.83;;;27.42;;
60292;SDS011;52402;52.670;6.750;2024-02-23T03:44:08;29.08;;;27.67;;
60292;SDS011;52402;52.670;6.750;2024-02-23T03:46:35;28.65;;;27.25;;
60292;SDS011;52402;52.670;6.750;2024-02-23T03:49:00;29.25;;;27.85;;
60292;SDS011;52402;52.670;6.750;2024-02-23T03:51:26;26.42;;;25.13;;
60292;SDS011;52402;52.670;6.750;2024-02-23T03:53:51;28.13;;;26.73;;
60292;SDS011;52402;52.670;6.750;2024-02-23T03:56:17;27.35;;;26.05;;
60292;SDS011;52402;52.670;6.750;2024-02-23T03:58:45;27.45;;;26.15;;
60292;SDS011;52402;52.670;6.750;2024-02-23T04:01:11;26.30;;;25.00;;
60292;SDS011;52402;52.670;6.750;2024-02-23T04:03:36;28.73;;;27.33;;
60292;SDS011;52402;52.670;6.750;2024-02-23T04:06:02;26.92;;;25.63;;
60292;SDS011;52402;52.670;6.750;2024-02-23T04:08:27;27.70;;;26.30;;
60292;SDS011;52402;52.670;6.750;2024-02-23T04:10:53;26.67;;;25.38;;
60292;SDS011;52402;52.670;6.750;2024-02-23T04:13:19;26.95;;;25.65;;
60292;SDS011;52402;52.670;6.750;2024-02-23T04:15:45;23.20;;;22.10;;
60292;SDS011;52402;52.670;6.750;2024-02-23T04:18:11;23.20;;;22.10;;
60292;SDS011;52402;52.670;6.750;2024-02-23T04:20:36;24.27;;;23.08;;
60292;SDS011;52402;52.670;6.750;2024-02-23T04:23:02;25.38;;;24.17;;
60292;SDS011;52402;52.670;6.750;2024-02-23T04:25:27;26.50;;;25.20;;
60292;SDS011;52402;52.670;6.750;2024-02-23T04:27:53;26.35;;;25.05;;
60292;SDS011;52402;52.670;6.750;2024-02-23T04:30:19;25.77;;;24.55;;
60292;SDS011;52402;52.670;6.750;2024-02-23T04:32:44;26.75;;;25.45;;
60292;SDS011;52402;52.670;6.750;2024-02-23T04:35:10;25.02;;;23.83;;
60292;SDS011;52402;52.670;6.750;2024-02-23T04:37:36;27.27;;;25.98;;
60292;SDS011;52402;52.670;6.750;2024-02-23T04:40:01;26.27;;;25.08;;
60292;SDS011;52402;52.670;6.750;2024-02-23T04:42:30;26.80;;;25.52;;
60292;SDS011;52402;52.670;6.750;2024-02-23T04:44:56;26.80;;;25.50;;
60292;SDS011;52402;52.670;6.750;2024-02-23T04:47:21;27.08;;;25.77;;
60292;SDS011;52402;52.670;6.750;2024-02-23T04:49:47;27.05;;;25.75;;
60292;SDS011;52402;52.670;6.750;2024-02-23T04:52:14;26.65;;;25.35;;
60292;SDS011;52402;52.670;6.750;2024-02-23T04:54:39;27.02;;;25.73;;
60292;SDS011;52402;52.670;6.750;2024-02-23T04:57:05;28.15;;;26.80;;
60292;SDS011;52402;52.670;6.750;2024-02-23T04:59:31;27.38;;;26.08;;
60292;SDS011;52402;52.670;6.750;2024-02-23T05:01:57;26.65;;;25.35;;
60292;SDS011;52402;52.670;6.750;2024-02-23T05:04:23;26.58;;;25.27;;
60292;SDS011;52402;52.670;6.750;2024-02-23T05:06:51;27.20;;;25.90;;
60292;SDS011;52402;52.670;6.750;2024-02-23T05:09:17;25.83;;;24.60;;
60292;SDS011;52402;52.670;6.750;2024-02-23T05:11:42;26.05;;;24.75;;
60292;SDS011;52402;52.670;6.750;2024-02-23T05:14:08;26.15;;;24.90;;
60292;SDS011;52402;52.670;6.750;2024-02-23T05:16:34;24.83;;;23.63;;
60292;SDS011;52402;52.670;6.750;2024-02-23T05:18:59;25.40;;;24.20;;
60292;SDS011;52402;52.670;6.750;2024-02-23T05:21:25;26.02;;;24.73;;
60292;SDS011;52402;52.670;6.750;2024-02-23T05:23:51;25.30;;;24.00;;
60292;SDS011;52402;52.670;6.750;2024-02-23T05:26:17;26.02;;;24.73;;
60292;SDS011;52402;52.670;6.750;2024-02-23T05:28:42;26.40;;;25.10;;
60292;SDS011;52402;52.670;6.750;2024-02-23T05:31:09;25.00;;;23.80;;
60292;SDS011;52402;52.670;6.750;2024-02-23T05:33:35;26.23;;;24.92;;
60292;SDS011;52402;52.670;6.750;2024-02-23T05:36:00;25.75;;;24.45;;
60292;SDS011;52402;52.670;6.750;2024-02-23T05:38:26;24.88;;;23.67;;
60292;SDS011;52402;52.670;6.750;2024-02-23T05:40:52;25.10;;;23.90;;
60292;SDS011;52402;52.670;6.750;2024-02-23T05:43:17;26.30;;;25.00;;
60292;SDS011;52402;52.670;6.750;2024-02-23T05:45:43;25.27;;;24.08;;
60292;SDS011;52402;52.670;6.750;2024-02-23T05:48:10;24.42;;;23.23;;
60292;SDS011;52402;52.670;6.750;2024-02-23T05:50:36;24.70;;;23.50;;
60292;SDS011;52402;52.670;6.750;2024-02-23T05:53:02;24.17;;;22.98;;
60292;SDS011;52402;52.670;6.750;2024-02-23T05:55:29;24.60;;;23.40;;
60292;SDS011;52402;52.670;6.750;2024-02-23T05:57:55;24.27;;;23.08;;
60292;SDS011;52402;52.670;6.750;2024-02-23T06:00:21;23.95;;;22.75;;
60292;SDS011;52402;52.670;6.750;2024-02-23T06:02:47;24.73;;;23.52;;
60292;SDS011;52402;52.670;6.750;2024-02-23T06:05:13;23.33;;;22.23;;
60292;SDS011;52402;52.670;6.750;2024-02-23T06:07:38;24.35;;;23.15;;
60292;SDS011;52402;52.670;6.750;2024-02-23T06:10:05;23.52;;;22.42;;
60292;SDS011;52402;52.670;6.750;2024-02-23T06:12:31;23.15;;;22.05;;
60292;SDS011;52402;52.670;6.750;2024-02-23T06:14:57;24.40;;;23.20;;
60292;SDS011;52402;52.670;6.750;2024-02-23T06:17:23;24.52;;;23.33;;
60292;SDS011;52402;52.670;6.750;2024-02-23T06:19:49;24.33;;;23.13;;
60292;SDS011;52402;52.670;6.750;2024-02-23T06:22:15;23.83;;;22.70;;
60292;SDS011;52402;52.670;6.750;2024-02-23T06:27:12;22.10;;;21.00;;
60292;SDS011;52402;52.670;6.750;2024-02-23T06:29:37;22.80;;;21.70;;
60292;SDS011;52402;52.670;6.750;2024-02-23T06:32:03;22.85;;;21.75;;
60292;SDS011;52402;52.670;6.750;2024-02-23T06:34:29;21.88;;;20.77;;
60292;SDS011;52402;52.670;6.750;2024-02-23T06:36:54;21.13;;;20.13;;
60292;SDS011;52402;52.670;6.750;2024-02-23T06:39:20;20.90;;;19.90;;
60292;SDS011;52402;52.670;6.750;2024-02-23T06:41:46;22.02;;;20.92;;
60292;SDS011;52402;52.670;6.750;2024-02-23T06:44:11;20.70;;;19.70;;
60292;SDS011;52402;52.670;6.750;2024-02-23T06:46:37;20.83;;;19.83;;
60292;SDS011;52402;52.670;6.750;2024-02-23T06:49:03;19.83;;;18.83;;
60292;SDS011;52402;52.670;6.750;2024-02-23T06:51:31;20.58;;;19.58;;
60292;SDS011;52402;52.670;6.750;2024-02-23T06:53:57;19.42;;;18.42;;
60292;SDS011;52402;52.670;6.750;2024-02-23T06:56:22;20.65;;;19.65;;
60292;SDS011;52402;52.670;6.750;2024-02-23T06:58:48;20.15;;;19.15;;
60292;SDS011;52402;52.670;6.750;2024-02-23T07:01:13;19.30;;;18.30;;
60292;SDS011;52402;52.670;6.750;2024-02-23T07:03:39;18.33;;;17.42;;
60292;SDS011;52402;52.670;6.750;2024-02-23T07:06:07;17.80;;;16.90;;
60292;SDS011;52402;52.670;6.750;2024-02-23T07:08:35;19.00;;;18.00;;
60292;SDS011;52402;52.670;6.750;2024-02-23T07:11:00;18.17;;;17.27;;
60292;SDS011;52402;52.670;6.750;2024-02-23T07:13:26;17.98;;;17.08;;
60292;SDS011;52402;52.670;6.750;2024-02-23T07:15:52;18.08;;;17.17;;
60292;SDS011;52402;52.670;6.750;2024-02-23T07:18:17;17.92;;;17.02;;
60292;SDS011;52402;52.670;6.750;2024-02-23T07:20:43;18.20;;;17.30;;
60292;SDS011;52402;52.670;6.750;2024-02-23T07:23:08;18.45;;;17.55;;
60292;SDS011;52402;52.670;6.750;2024-02-23T07:25:35;17.27;;;16.38;;
60292;SDS011;52402;52.670;6.750;2024-02-23T07:28:00;17.35;;;16.45;;
60292;SDS011;52402;52.670;6.750;2024-02-23T07:30:26;17.88;;;16.98;;
60292;SDS011;52402;52.670;6.750;2024-02-23T07:32:51;17.63;;;16.73;;
60292;SDS011;52402;52.670;6.750;2024-02-23T07:35:17;17.90;;;17.00;;
60292;SDS011;52402;52.670;6.750;2024-02-23T07:37:43;16.83;;;15.93;;
60292;SDS011;52402;52.670;6.750;2024-02-23T07:40:08;16.85;;;15.95;;
60292;SDS011;52402;52.670;6.750;2024-02-23T07:42:34;16.73;;;15.82;;
60292;SDS011;52402;52.670;6.750;2024-02-23T07:45:03;16.10;;;15.30;;
60292;SDS011;52402;52.670;6.750;2024-02-23T07:50:32;16.25;;;15.45;;
60292;SDS011;52402;52.670;6.750;2024-02-23T07:58:52;16.58;;;15.68;;
60292;SDS011;52402;52.670;6.750;2024-02-23T08:01:21;15.70;;;14.90;;
60292;SDS011;52402;52.670;6.750;2024-02-23T08:03:55;16.27;;;15.45;;
60292;SDS011;52402;52.670;6.750;2024-02-23T08:06:28;15.93;;;15.13;;
60292;SDS011;52402;52.670;6.750;2024-02-23T08:09:29;17.08;;;16.17;;
60292;SDS011;52402;52.670;6.750;2024-02-23T08:12:04;16.35;;;15.45;;
60292;SDS011;52402;52.670;6.750;2024-02-23T08:14:39;16.20;;;15.35;;
60292;SDS011;52402;52.670;6.750;2024-02-23T08:17:08;16.48;;;15.57;;
60292;SDS011;52402;52.670;6.750;2024-02-23T08:24:32;16.33;;;15.43;;
60292;SDS011;52402;52.670;6.750;2024-02-23T08:26:58;16.80;;;15.90;;
60292;SDS011;52402;52.670;6.750;2024-02-23T08:29:23;15.98;;;15.07;;
60292;SDS011;52402;52.670;6.750;2024-02-23T08:31:53;16.52;;;15.63;;
60292;SDS011;52402;52.670;6.750;2024-02-23T08:34:19;16.90;;;16.00;;
60292;SDS011;52402;52.670;6.750;2024-02-23T08:36:47;17.23;;;16.33;;
60292;SDS011;52402;52.670;6.750;2024-02-23T08:39:13;17.90;;;16.90;;
60292;SDS011;52402;52.670;6.750;2024-02-23T08:41:39;17.00;;;16.10;;
60292;SDS011;52402;52.670;6.750;2024-02-23T08:44:07;17.25;;;16.35;;
60292;SDS011;52402;52.670;6.750;2024-02-23T08:46:39;16.80;;;15.90;;
60292;SDS011;52402;52.670;6.750;2024-02-23T08:49:05;16.02;;;15.13;;
60292;SDS011;52402;52.670;6.750;2024-02-23T08:51:31;16.45;;;15.55;;
60292;SDS011;52402;52.670;6.750;2024-02-23T08:53:56;16.63;;;15.73;;
60292;SDS011;52402;52.670;6.750;2024-02-23T08:56:29;16.67;;;15.77;;
60292;SDS011;52402;52.670;6.750;2024-02-23T08:58:55;16.70;;;15.80;;
60292;SDS011;52402;52.670;6.750;2024-02-23T09:01:21;17.05;;;16.15;;
60292;SDS011;52402;52.670;6.750;2024-02-23T09:03:47;17.05;;;16.15;;
60292;SDS011;52402;52.670;6.750;2024-02-23T09:06:13;16.90;;;16.00;;
60292;SDS011;52402;52.670;6.750;2024-02-23T09:08:39;17.58;;;16.58;;
60292;SDS011;52402;52.670;6.750;2024-02-23T09:11:06;16.35;;;15.45;;
60292;SDS011;52402;52.670;6.750;2024-02-23T09:13:40;16.60;;;15.70;;
60292;SDS011;52402;52.670;6.750;2024-02-23T09:16:14;16.63;;;15.73;;
60292;SDS011;52402;52.670;6.750;2024-02-23T09:18:51;16.25;;;15.35;;
60292;SDS011;52402;52.670;6.750;2024-02-23T09:21:17;17.50;;;16.50;;
60292;SDS011;52402;52.670;6.750;2024-02-23T09:23:43;16.95;;;16.05;;
60292;SDS011;52402;52.670;6.750;2024-02-23T09:26:09;17.25;;;16.30;;
60292;SDS011;52402;52.670;6.750;2024-02-23T09:28:38;17.37;;;16.37;;
60292;SDS011;52402;52.670;6.750;2024-02-23T09:31:07;16.70;;;15.80;;
60292;SDS011;52402;52.670;6.750;2024-02-23T09:33:35;16.75;;;15.85;;
60292;SDS011;52402;52.670;6.750;2024-02-23T09:36:01;16.90;;;15.95;;
60292;SDS011;52402;52.670;6.750;2024-02-23T09:38:27;17.48;;;16.48;;
60292;SDS011;52402;52.670;6.750;2024-02-23T09:40:56;17.50;;;16.50;;
60292;SDS011;52402;52.670;6.750;2024-02-23T09:43:27;17.02;;;16.05;;
60292;SDS011;52402;52.670;6.750;2024-02-23T09:45:57;17.65;;;16.65;;
60292;SDS011;52402;52.670;6.750;2024-02-23T09:48:34;17.77;;;16.77;;
60292;SDS011;52402;52.670;6.750;2024-02-23T10:27:54;17.55;;;16.55;;
60292;SDS011;52402;52.670;6.750;2024-02-23T10:38:21;17.35;;;16.35;;
60292;SDS011;52402;52.670;6.750;2024-02-23T10:40:51;17.58;;;16.58;;
60292;SDS011;52402;52.670;6.750;2024-02-23T10:43:22;17.38;;;16.38;;
60292;SDS011;52402;52.670;6.750;2024-02-23T10:46:17;17.58;;;16.58;;
60292;SDS011;52402;52.670;6.750;2024-02-23T10:48:58;17.38;;;16.38;;
60292;SDS011;52402;52.670;6.750;2024-02-23T10:51:25;17.00;;;16.10;;
60292;SDS011;52402;52.670;6.750;2024-02-23T10:53:52;18.20;;;17.20;;
60292;SDS011;52402;52.670;6.750;2024-02-23T10:56:20;18.42;;;17.42;;
60292;SDS011;52402;52.670;6.750;2024-02-23T10:58:47;17.88;;;16.88;;
60292;SDS011;52402;52.670;6.750;2024-02-23T11:01:14;18.75;;;17.65;;
60292;SDS011;52402;52.670;6.750;2024-02-23T11:03:54;17.75;;;16.75;;
60292;SDS011;52402;52.670;6.750;2024-02-23T11:06:27;18.27;;;17.27;;
60292;SDS011;52402;52.670;6.750;2024-02-23T11:08:53;18.33;;;17.23;;
60292;SDS011;52402;52.670;6.750;2024-02-23T11:11:19;18.70;;;17.60;;
60292;SDS011;52402;52.670;6.750;2024-02-23T11:13:45;18.45;;;17.35;;
60292;SDS011;52402;52.670;6.750;2024-02-23T11:16:21;18.42;;;17.42;;
60292;SDS011;52402;52.670;6.750;2024-02-23T11:18:48;17.77;;;16.77;;
60292;SDS011;52402;52.670;6.750;2024-02-23T11:21:14;18.80;;;17.70;;
60292;SDS011;52402;52.670;6.750;2024-02-23T11:23:40;19.17;;;18.08;;
60292;SDS011;52402;52.670;6.750;2024-02-23T11:26:13;19.08;;;17.98;;
60292;SDS011;52402;52.670;6.750;2024-02-23T11:28:49;19.10;;;18.00;;
60292;SDS011;52402;52.670;6.750;2024-02-23T11:31:22;18.90;;;17.80;;
60292;SDS011;52402;52.670;6.750;2024-02-23T11:36:34;19.85;;;18.75;;
60292;SDS011;52402;52.670;6.750;2024-02-23T11:39:02;19.60;;;18.50;;
60292;SDS011;52402;52.670;6.750;2024-02-23T11:41:28;19.17;;;18.08;;
60292;SDS011;52402;52.670;6.750;2024-02-23T11:43:55;18.77;;;17.77;;
60292;SDS011;52402;52.670;6.750;2024-02-23T11:46:26;19.43;;;18.33;;
60292;SDS011;52402;52.670;6.750;2024-02-23T11:49:00;18.40;;;17.40;;
60292;SDS011;52402;52.670;6.750;2024-02-23T11:51:27;18.85;;;17.80;;
60292;SDS011;52402;52.670;6.750;2024-02-23T11:53:59;18.42;;;17.42;;
60292;SDS011;52402;52.670;6.750;2024-02-23T11:56:25;18.75;;;17.75;;
60292;SDS011;52402;52.670;6.750;2024-02-23T11:58:52;18.52;;;17.52;;
60292;SDS011;52402;52.670;6.750;2024-02-23T12:02:12;19.13;;;18.10;;
60292;SDS011;52402;52.670;6.750;2024-02-23T12:04:38;18.73;;;17.73;;
60292;SDS011;52402;52.670;6.750;2024-02-23T12:07:04;18.52;;;17.52;;
60292;SDS011;52402;52.670;6.750;2024-02-23T12:09:30;18.88;;;17.88;;
60292;SDS011;52402;52.670;6.750;2024-02-23T12:12:08;18.42;;;17.42;;
60292;SDS011;52402;52.670;6.750;2024-02-23T12:14:41;19.35;;;18.25;;
60292;SDS011;52402;52.670;6.750;2024-02-23T12:17:10;18.42;;;17.42;;
60292;SDS011;52402;52.670;6.750;2024-02-23T12:19:42;18.23;;;17.23;;
60292;SDS011;52402;52.670;6.750;2024-02-23T12:22:09;17.70;;;16.70;;
60292;SDS011;52402;52.670;6.750;2024-02-23T12:24:36;18.75;;;17.75;;
60292;SDS011;52402;52.670;6.750;2024-02-23T12:27:02;17.77;;;16.77;;
60292;SDS011;52402;52.670;6.750;2024-02-23T12:29:34;18.70;;;17.70;;
60292;SDS011;52402;52.670;6.750;2024-02-23T12:32:03;17.92;;;16.92;;
60292;SDS011;52402;52.670;6.750;2024-02-23T12:36:55;18.13;;;17.13;;
60292;SDS011;52402;52.670;6.750;2024-02-23T12:39:24;18.42;;;17.42;;
60292;SDS011;52402;52.670;6.750;2024-02-23T12:41:52;17.77;;;16.77;;
60292;SDS011;52402;52.670;6.750;2024-02-23T12:44:17;18.90;;;17.90;;
60292;SDS011;52402;52.670;6.750;2024-02-23T12:46:43;18.30;;;17.30;;
60292;SDS011;52402;52.670;6.750;2024-02-23T12:49:09;18.23;;;17.23;;
60292;SDS011;52402;52.670;6.750;2024-02-23T12:51:37;18.02;;;17.02;;
60292;SDS011;52402;52.670;6.750;2024-02-23T12:54:06;17.33;;;16.42;;
60292;SDS011;52402;52.670;6.750;2024-02-23T12:56:35;17.77;;;16.77;;
60292;SDS011;52402;52.670;6.750;2024-02-23T12:59:09;17.60;;;16.60;;
60292;SDS011;52402;52.670;6.750;2024-02-23T13:01:35;17.45;;;16.45;;
60292;SDS011;52402;52.670;6.750;2024-02-23T13:04:03;17.50;;;16.50;;
60292;SDS011;52402;52.670;6.750;2024-02-23T13:06:37;17.52;;;16.52;;
60292;SDS011;52402;52.670;6.750;2024-02-23T13:09:04;17.80;;;16.80;;
60292;SDS011;52402;52.670;6.750;2024-02-23T13:11:40;17.73;;;16.73;;
60292;SDS011;52402;52.670;6.750;2024-02-23T13:14:21;17.52;;;16.52;;
60292;SDS011;52402;52.670;6.750;2024-02-23T13:16:58;17.55;;;16.55;;
60292;SDS011;52402;52.670;6.750;2024-02-23T13:19:23;17.33;;;16.33;;
60292;SDS011;52402;52.670;6.750;2024-02-23T13:21:52;17.13;;;16.23;;
60292;SDS011;52402;52.670;6.750;2024-02-23T13:24:18;18.25;;;17.25;;
60292;SDS011;52402;52.670;6.750;2024-02-23T13:26:47;17.88;;;16.88;;
60292;SDS011;52402;52.670;6.750;2024-02-23T13:32:10;17.40;;;16.40;;
60292;SDS011;52402;52.670;6.750;2024-02-23T13:34:44;18.40;;;17.40;;
60292;SDS011;52402;52.670;6.750;2024-02-23T13:37:21;17.88;;;16.88;;
60292;SDS011;52402;52.670;6.750;2024-02-23T13:40:10;18.08;;;17.08;;
60292;SDS011;52402;52.670;6.750;2024-02-23T13:42:39;18.00;;;17.00;;
60292;SDS011;52402;52.670;6.750;2024-02-23T13:45:15;17.55;;;16.55;;
60292;SDS011;52402;52.670;6.750;2024-02-23T13:47:42;17.90;;;16.90;;
60292;SDS011;52402;52.670;6.750;2024-02-23T13:50:10;17.92;;;16.92;;
60292;SDS011;52402;52.670;6.750;2024-02-23T13:52:36;17.40;;;16.40;;
60292;SDS011;52402;52.670;6.750;2024-02-23T13:55:04;17.88;;;16.88;;
60292;SDS011;52402;52.670;6.750;2024-02-23T13:57:34;17.40;;;16.40;;
60292;SDS011;52402;52.670;6.750;2024-02-23T14:00:00;19.02;;;17.92;;
60292;SDS011;52402;52.670;6.750;2024-02-23T14:02:26;18.25;;;17.25;;
60292;SDS011;52402;52.670;6.750;2024-02-23T14:04:55;18.15;;;17.15;;
60292;SDS011;52402;52.670;6.750;2024-02-23T14:07:44;18.15;;;17.15;;
60292;SDS011;52402;52.670;6.750;2024-02-23T14:10:09;17.77;;;16.77;;
60292;SDS011;52402;52.670;6.750;2024-02-23T14:12:40;17.63;;;16.63;;
60292;SDS011;52402;52.670;6.750;2024-02-23T14:15:07;17.80;;;16.80;;
60292;SDS011;52402;52.670;6.750;2024-02-23T14:17:34;17.58;;;16.58;;
60292;SDS011;52402;52.670;6.750;2024-02-23T14:22:31;17.75;;;16.75;;
60292;SDS011;52402;52.670;6.750;2024-02-23T14:24:57;18.10;;;17.10;;
60292;SDS011;52402;52.670;6.750;2024-02-23T14:27:23;18.02;;;17.02;;
60292;SDS011;52402;52.670;6.750;2024-02-23T14:29:49;17.00;;;16.10;;
60292;SDS011;52402;52.670;6.750;2024-02-23T14:32:17;17.30;;;16.30;;
60292;SDS011;52402;52.670;6.750;2024-02-23T14:34:47;17.70;;;16.70;;
60292;SDS011;52402;52.670;6.750;2024-02-23T14:37:13;16.30;;;15.40;;
60292;SDS011;52402;52.670;6.750;2024-02-23T14:39:39;16.75;;;15.85;;
60292;SDS011;52402;52.670;6.750;2024-02-23T14:42:11;17.35;;;16.35;;
60292;SDS011;52402;52.670;6.750;2024-02-23T14:44:37;16.77;;;15.88;;
60292;SDS011;52402;52.670;6.750;2024-02-23T14:47:05;17.38;;;16.38;;
60292;SDS011;52402;52.670;6.750;2024-02-23T14:49:40;17.23;;;16.30;;
60292;SDS011;52402;52.670;6.750;2024-02-23T14:52:05;17.10;;;16.20;;
60292;SDS011;52402;52.670;6.750;2024-02-23T14:54:31;16.42;;;15.52;;
60292;SDS011;52402;52.670;6.750;2024-02-23T14:56:58;17.17;;;16.17;;
60292;SDS011;52402;52.670;6.750;2024-02-23T14:59:24;17.40;;;16.40;;
60292;SDS011;52402;52.670;6.750;2024-02-23T15:01:50;17.02;;;16.05;;
60292;SDS011;52402;52.670;6.750;2024-02-23T15:04:16;17.42;;;16.42;;
60292;SDS011;52402;52.670;6.750;2024-02-23T15:06:42;16.40;;;15.50;;
60292;SDS011;52402;52.670;6.750;2024-02-23T15:09:07;17.27;;;16.27;;
60292;SDS011;52402;52.670;6.750;2024-02-23T15:14:05;16.92;;;16.02;;
60292;SDS011;52402;52.670;6.750;2024-02-23T15:16:31;17.55;;;16.55;;
60292;SDS011;52402;52.670;6.750;2024-02-23T15:18:57;17.15;;;16.20;;
60292;SDS011;52402;52.670;6.750;2024-02-23T15:21:23;16.67;;;15.77;;
60292;SDS011;52402;52.670;6.750;2024-02-23T15:23:52;16.98;;;16.08;;
60292;SDS011;52402;52.670;6.750;2024-02-23T15:26:18;16.27;;;15.38;;
60292;SDS011;52402;52.670;6.750;2024-02-23T15:28:44;17.13;;;16.23;;
60292;SDS011;52402;52.670;6.750;2024-02-23T15:31:11;16.90;;;16.00;;
60292;SDS011;52402;52.670;6.750;2024-02-23T15:33:37;16.98;;;16.08;;
60292;SDS011;52402;52.670;6.750;2024-02-23T15:36:07;17.67;;;16.67;;
60292;SDS011;52402;52.670;6.750;2024-02-23T15:38:38;16.60;;;15.70;;
60292;SDS011;52402;52.670;6.750;2024-02-23T15:41:06;17.13;;;16.20;;
60292;SDS011;52402;52.670;6.750;2024-02-23T15:43:35;17.52;;;16.52;;
60292;SDS011;52402;52.670;6.750;2024-02-23T15:46:01;17.77;;;16.77;;